createdAt,value
2023-01-09T00:00:41.708Z,94.9
2023-01-09T00:01:58.001Z,95
2023-01-09T00:03:14.304Z,95
2023-01-09T00:04:30.581Z,94.9
2023-01-09T00:05:46.877Z,94.9
2023-01-09T00:07:03.169Z,94.9
2023-01-09T00:08:19.470Z,94.9
2023-01-09T00:09:35.765Z,94.9
2023-01-09T00:10:52.062Z,95
2023-01-09T00:12:07.372Z,95.2
2023-01-09T00:13:23.649Z,95.1
2023-01-09T00:14:39.958Z,95.2
2023-01-09T00:15:56.234Z,95.4
2023-01-09T00:17:12.535Z,95.6
2023-01-09T00:18:28.825Z,95.7
2023-01-09T00:19:45.122Z,95.9
2023-01-09T00:21:01.418Z,96
2023-01-09T00:22:17.701Z,96.3
2023-01-09T00:23:34.007Z,96.4
2023-01-09T00:24:50.283Z,96.6
2023-01-09T00:26:06.577Z,96.7
2023-01-09T00:27:22.877Z,96.7
2023-01-09T00:28:38.182Z,96.7
2023-01-09T00:29:54.472Z,96.8
2023-01-09T00:31:10.767Z,97
2023-01-09T00:32:27.058Z,97
2023-01-09T00:33:43.362Z,97
2023-01-09T00:34:59.647Z,96.8
2023-01-09T00:36:15.952Z,96.8
2023-01-09T00:37:32.240Z,96.7
2023-01-09T00:38:48.533Z,96.5
2023-01-09T00:40:04.816Z,96.3
2023-01-09T00:41:21.125Z,96.3
2023-01-09T00:42:37.412Z,96.2
2023-01-09T00:43:53.707Z,96.2
2023-01-09T00:45:09.013Z,96.2
2023-01-09T00:46:25.307Z,96.2
2023-01-09T00:47:41.605Z,96.1
2023-01-09T00:48:57.891Z,96
2023-01-09T00:50:14.176Z,96
2023-01-09T00:51:30.484Z,95.9
2023-01-09T00:52:46.779Z,95.9
2023-01-09T00:54:03.053Z,95.9
2023-01-09T00:55:19.351Z,95.8
2023-01-09T00:56:35.652Z,95.6
2023-01-09T00:57:51.941Z,95.3
2023-01-09T00:59:08.231Z,95.3
2023-01-09T01:00:24.536Z,95.3
2023-01-09T01:01:39.839Z,95.1
2023-01-09T01:02:56.128Z,95
2023-01-09T01:04:12.414Z,95
2023-01-09T01:05:28.708Z,95
2023-01-09T01:06:45.007Z,94.9
2023-01-09T01:08:01.294Z,95
2023-01-09T01:09:17.595Z,95.1
2023-01-09T01:10:33.879Z,95.1
2023-01-09T01:11:50.181Z,95.3
2023-01-09T01:13:06.483Z,95.3
2023-01-09T01:14:22.776Z,95.3
2023-01-09T01:15:39.057Z,95.3
2023-01-09T01:16:55.364Z,95.3
2023-01-09T01:18:10.669Z,95.3
2023-01-09T01:19:26.955Z,95.3
2023-01-09T01:20:43.258Z,95.3
2023-01-09T01:21:59.536Z,95.3
2023-01-09T01:23:15.839Z,95.1
2023-01-09T01:24:32.129Z,95
2023-01-09T01:25:48.428Z,95
2023-01-09T01:27:04.713Z,94.9
2023-01-09T01:28:21.007Z,94.8
2023-01-09T01:29:37.303Z,94.8
2023-01-09T01:30:53.596Z,94.9
2023-01-09T01:32:09.892Z,94.9
2023-01-09T01:33:26.185Z,94.9
2023-01-09T01:34:41.498Z,94.9
2023-01-09T01:35:57.788Z,94.8
2023-01-09T01:37:14.087Z,94.7
2023-01-09T01:38:30.365Z,94.6
2023-01-09T01:39:46.655Z,94.4
2023-01-09T01:42:19.248Z,94.2
2023-01-09T01:43:35.533Z,94.1
2023-01-09T01:44:51.827Z,94
2023-01-09T01:46:08.137Z,94
2023-01-09T01:47:24.421Z,93.8
2023-01-09T01:48:40.706Z,93.7
2023-01-09T01:49:57.003Z,93.6
2023-01-09T01:51:12.312Z,93.5
2023-01-09T01:52:28.616Z,93.5
2023-01-09T01:53:44.907Z,93.3
2023-01-09T01:55:01.205Z,93.2
2023-01-09T01:56:17.488Z,93.2
2023-01-09T01:57:33.773Z,93.2
2023-01-09T01:58:50.068Z,93.1
2023-01-09T02:00:06.360Z,93.1
2023-01-09T02:01:22.665Z,93
2023-01-09T02:02:38.948Z,92.8
2023-01-09T02:03:55.239Z,92.8
2023-01-09T02:05:11.549Z,93
2023-01-09T02:06:27.842Z,92.8
2023-01-09T02:07:43.142Z,92.7
2023-01-09T02:08:59.441Z,92.6
2023-01-09T02:10:15.726Z,92.6
2023-01-09T02:11:32.017Z,92.6
2023-01-09T02:12:48.320Z,92.6
2023-01-09T02:14:04.612Z,92.6
2023-01-09T02:15:20.894Z,92.5
2023-01-09T02:16:37.193Z,92.5
2023-01-09T02:17:53.488Z,92.5
2023-01-09T02:19:09.772Z,92.5
2023-01-09T02:20:26.074Z,92.6
2023-01-09T02:21:42.374Z,92.6
2023-01-09T02:22:58.648Z,92.6
2023-01-09T02:24:13.966Z,92.8
2023-01-09T02:25:30.266Z,92.7
2023-01-09T02:26:46.543Z,92.8
2023-01-09T02:28:02.847Z,92.7
2023-01-09T02:29:19.147Z,92.8
2023-01-09T02:30:35.440Z,93
2023-01-09T02:31:51.724Z,93
2023-01-09T02:33:08.027Z,93.2
2023-01-09T02:34:24.306Z,93
2023-01-09T02:35:40.596Z,93
2023-01-09T02:36:56.891Z,92.9
2023-01-09T02:38:13.183Z,92.9
2023-01-09T02:39:29.477Z,92.8
2023-01-09T02:40:44.790Z,92.7
2023-01-09T02:42:01.077Z,92.5
2023-01-09T02:43:17.379Z,92.4
2023-01-09T02:44:33.674Z,92.1
2023-01-09T02:45:49.967Z,91.8
2023-01-09T02:47:06.251Z,91.7
2023-01-09T02:48:21.577Z,91.6
2023-01-09T02:49:37.856Z,91.6
2023-01-09T02:50:54.164Z,91.8
2023-01-09T02:52:10.443Z,92.1
2023-01-09T02:53:26.748Z,92.2
2023-01-09T02:54:43.035Z,92.3
2023-01-09T02:55:59.332Z,92.8
2023-01-09T02:57:15.622Z,93
2023-01-09T02:58:31.907Z,93.4
2023-01-09T02:59:48.202Z,93.7
2023-01-09T03:01:04.493Z,94.7
2023-01-09T03:02:20.803Z,94.8
2023-01-09T03:03:37.084Z,95.3
2023-01-09T03:04:52.392Z,95.6
2023-01-09T03:06:08.686Z,96.1
2023-01-09T03:07:24.975Z,96.5
2023-01-09T03:08:41.276Z,97.1
2023-01-09T03:09:57.564Z,97.7
2023-01-09T03:11:13.852Z,98.2
2023-01-09T03:12:30.156Z,98.4
2023-01-09T03:13:46.448Z,98.8
2023-01-09T03:15:02.734Z,99.1
2023-01-09T03:16:19.039Z,99.4
2023-01-09T03:17:35.327Z,99.5
2023-01-09T03:18:51.618Z,99.7
2023-01-09T03:20:07.924Z,99.8
2023-01-09T03:21:23.226Z,99.9
2023-01-09T03:22:39.518Z,100
2023-01-09T03:23:55.819Z,100
2023-01-09T03:25:12.100Z,100
2023-01-09T03:26:28.395Z,100
2023-01-09T03:27:44.686Z,100
2023-01-09T03:29:00.990Z,100
2023-01-09T03:30:17.273Z,100
2023-01-09T03:31:33.575Z,100
2023-01-09T03:32:49.850Z,100
2023-01-09T03:34:06.152Z,100
2023-01-09T03:35:22.453Z,100
2023-01-09T03:36:38.738Z,100
2023-01-09T03:37:54.046Z,100
2023-01-09T03:39:10.334Z,100
2023-01-09T03:40:26.643Z,100
2023-01-09T03:41:42.930Z,100
2023-01-09T03:42:59.213Z,100
2023-01-09T03:44:15.516Z,100
2023-01-09T03:45:31.794Z,100
2023-01-09T03:46:48.094Z,100
2023-01-09T03:48:04.393Z,100
2023-01-09T03:49:20.692Z,100
2023-01-09T03:50:36.986Z,100
2023-01-09T03:51:53.279Z,100
2023-01-09T03:53:09.562Z,100
2023-01-09T03:54:24.881Z,100
2023-01-09T03:55:41.158Z,100
2023-01-09T03:56:57.450Z,100
2023-01-09T03:58:13.741Z,100
2023-01-09T03:59:30.046Z,100
2023-01-09T04:00:46.332Z,100
2023-01-09T04:02:02.624Z,100
2023-01-09T04:03:18.932Z,100
2023-01-09T04:04:35.206Z,100
2023-01-09T04:05:51.509Z,100
2023-01-09T04:07:07.793Z,100
2023-01-09T04:08:24.090Z,100
2023-01-09T04:09:40.386Z,100
2023-01-09T04:10:55.699Z,100
2023-01-09T04:12:11.996Z,100
2023-01-09T04:13:28.291Z,100
2023-01-09T04:14:44.584Z,100
2023-01-09T04:16:00.867Z,100
2023-01-09T04:17:17.169Z,100
2023-01-09T04:18:33.456Z,100
2023-01-09T04:19:49.745Z,100
2023-01-09T04:21:06.038Z,100
2023-01-09T04:23:38.614Z,100
2023-01-09T04:24:54.908Z,100
2023-01-09T04:26:11.219Z,100
2023-01-09T04:27:26.524Z,100
2023-01-09T04:28:42.804Z,100
2023-01-09T04:29:59.106Z,100
2023-01-09T04:31:15.394Z,100
2023-01-09T04:32:31.682Z,100
2023-01-09T04:33:47.992Z,100
2023-01-09T04:35:04.273Z,100
2023-01-09T04:36:20.572Z,100
2023-01-09T04:37:36.856Z,100
2023-01-09T04:38:53.161Z,100
2023-01-09T04:40:09.443Z,100
2023-01-09T04:41:25.744Z,100
2023-01-09T04:42:42.027Z,100
2023-01-09T04:43:57.354Z,100
2023-01-09T04:45:13.638Z,100
2023-01-09T04:46:29.934Z,100
2023-01-09T04:47:46.221Z,100
2023-01-09T04:49:02.513Z,100
2023-01-09T04:50:18.810Z,100
2023-01-09T04:51:35.106Z,100
2023-01-09T04:52:51.385Z,100
2023-01-09T04:54:07.694Z,100
2023-01-09T04:55:23.982Z,100
2023-01-09T04:56:40.278Z,100
2023-01-09T04:57:56.571Z,100
2023-01-09T04:59:12.856Z,100
2023-01-09T05:00:28.167Z,100
2023-01-09T05:01:44.468Z,100
2023-01-09T05:03:00.760Z,100
2023-01-09T05:04:17.043Z,100
2023-01-09T05:05:33.338Z,100
2023-01-09T05:06:49.625Z,100
2023-01-09T05:08:05.917Z,100
2023-01-09T05:09:22.214Z,100
2023-01-09T05:10:38.505Z,100
2023-01-09T05:11:54.799Z,100
2023-01-09T05:13:11.091Z,100
2023-01-09T05:14:27.385Z,100
2023-01-09T05:15:43.679Z,100
2023-01-09T05:16:58.990Z,100
2023-01-09T05:18:15.276Z,100
2023-01-09T05:19:31.584Z,100
2023-01-09T05:20:47.876Z,100
2023-01-09T05:22:04.155Z,100
2023-01-09T05:23:20.466Z,100
2023-01-09T05:24:36.743Z,100
2023-01-09T05:25:53.053Z,100
2023-01-09T05:27:09.334Z,100
2023-01-09T05:28:25.636Z,100
2023-01-09T05:29:41.916Z,100
2023-01-09T05:30:58.211Z,100
2023-01-09T05:32:14.518Z,100
2023-01-09T05:33:29.809Z,100
2023-01-09T05:34:46.119Z,100
2023-01-09T05:36:02.404Z,100
2023-01-09T05:37:18.702Z,100
2023-01-09T05:38:34.997Z,100
2023-01-09T05:39:51.288Z,100
2023-01-09T05:41:07.573Z,100
2023-01-09T05:42:23.865Z,100
2023-01-09T05:43:40.161Z,99.8
2023-01-09T05:44:56.460Z,99.4
2023-01-09T05:46:12.754Z,99
2023-01-09T05:47:29.037Z,98.5
2023-01-09T05:48:45.321Z,98.4
2023-01-09T05:50:00.646Z,97.9
2023-01-09T05:51:16.937Z,97.6
2023-01-09T05:52:33.229Z,97.1
2023-01-09T05:53:49.513Z,96.7
2023-01-09T05:55:05.802Z,96.6
2023-01-09T05:56:22.109Z,96.2
2023-01-09T05:57:38.404Z,96.1
2023-01-09T05:58:54.691Z,96.1
2023-01-09T06:00:10.992Z,96.3
2023-01-09T06:01:27.267Z,96.1
2023-01-09T06:02:43.560Z,96.2
2023-01-09T06:03:59.864Z,95.9
2023-01-09T06:05:16.152Z,95.5
2023-01-09T06:06:31.453Z,95.7
2023-01-09T06:07:47.759Z,95.4
2023-01-09T06:09:04.047Z,95.4
2023-01-09T06:10:20.347Z,95.8
2023-01-09T06:11:36.628Z,95.4
2023-01-09T06:12:52.923Z,95.6
2023-01-09T06:14:09.210Z,95.4
2023-01-09T06:15:25.503Z,95.5
2023-01-09T06:16:41.814Z,95.4
2023-01-09T06:17:58.102Z,94.8
2023-01-09T06:19:14.399Z,94.6
2023-01-09T06:20:30.689Z,94.6
2023-01-09T06:21:46.972Z,94.9
2023-01-09T06:23:02.285Z,94.8
2023-01-09T06:24:18.588Z,95
2023-01-09T06:25:34.878Z,95
2023-01-09T06:26:51.169Z,95.1
2023-01-09T06:28:07.450Z,95
2023-01-09T06:29:23.745Z,95.1
2023-01-09T06:30:40.053Z,95.2
2023-01-09T06:31:56.325Z,95.4
2023-01-09T06:33:12.623Z,95.2
2023-01-09T06:34:28.925Z,95.4
2023-01-09T06:35:45.207Z,95.3
2023-01-09T06:37:01.497Z,95.5
2023-01-09T06:38:17.790Z,95.7
2023-01-09T06:39:33.105Z,95.5
2023-01-09T06:40:49.396Z,95.3
2023-01-09T06:42:05.690Z,95.1
2023-01-09T06:43:21.998Z,95.4
2023-01-09T06:44:38.288Z,95.4
2023-01-09T06:45:54.514Z,95.4
2023-01-09T06:47:10.762Z,95.6
2023-01-09T06:48:27.011Z,95.7
2023-01-09T06:49:43.259Z,95.8
2023-01-09T06:50:59.490Z,95.4
2023-01-09T06:52:15.727Z,95.4
2023-01-09T06:53:31.986Z,95.3
2023-01-09T06:54:48.217Z,95
2023-01-09T06:56:03.474Z,95.2
2023-01-09T06:57:19.716Z,95
2023-01-09T06:58:35.938Z,95
2023-01-09T06:59:52.180Z,95.1
2023-01-09T07:01:08.416Z,95
2023-01-09T07:02:24.656Z,95
2023-01-09T07:03:39.926Z,94.8
2023-01-09T07:04:56.170Z,94.7
2023-01-09T07:06:12.410Z,94.5
2023-01-09T07:07:28.638Z,94.7
2023-01-09T07:08:44.883Z,94.4
2023-01-09T07:10:01.109Z,94.7
2023-01-09T07:11:17.358Z,94.4
2023-01-09T07:12:33.602Z,94.6
2023-01-09T07:13:49.840Z,94.3
2023-01-09T07:15:06.071Z,94.1
2023-01-09T07:16:22.308Z,93.8
2023-01-09T07:17:38.547Z,93.7
2023-01-09T07:18:54.791Z,93.4
2023-01-09T07:20:10.048Z,93.2
2023-01-09T07:21:26.283Z,93.3
2023-01-09T07:22:42.522Z,93.1
2023-01-09T07:23:58.767Z,92.9
2023-01-09T07:25:15.006Z,92.9
2023-01-09T07:26:31.247Z,93
2023-01-09T07:27:47.487Z,92.6
2023-01-09T07:29:03.711Z,92.8
2023-01-09T07:30:19.958Z,92.8
2023-01-09T07:31:36.189Z,93
2023-01-09T07:32:52.429Z,92.9
2023-01-09T07:34:08.680Z,92.9
2023-01-09T07:35:24.909Z,92.8
2023-01-09T07:36:40.159Z,92.9
2023-01-09T07:37:56.404Z,93.1
2023-01-09T07:39:12.637Z,93.4
2023-01-09T07:40:28.888Z,93.5
2023-01-09T07:41:45.121Z,93.3
2023-01-09T07:43:01.366Z,93.1
2023-01-09T07:44:17.600Z,93.2
2023-01-09T07:45:33.835Z,93.1
2023-01-09T07:46:50.071Z,93
2023-01-09T07:48:06.325Z,93.1
2023-01-09T07:49:22.567Z,93.3
2023-01-09T07:50:38.807Z,93
2023-01-09T07:51:55.029Z,92.8
2023-01-09T07:53:10.286Z,92.8
2023-01-09T07:54:26.522Z,92.8
2023-01-09T07:55:42.770Z,92.8
2023-01-09T07:56:59.006Z,92.9
2023-01-09T07:58:15.239Z,92.7
2023-01-09T07:59:31.490Z,92.8
2023-01-09T08:00:47.723Z,92.9
2023-01-09T08:02:03.961Z,93.1
2023-01-09T08:03:20.197Z,93
2023-01-09T08:04:36.445Z,92.9
2023-01-09T08:07:08.882Z,92.8
2023-01-09T08:08:25.123Z,92.9
2023-01-09T08:09:40.387Z,93
2023-01-09T08:10:56.625Z,92.9
2023-01-09T08:12:12.855Z,92.8
2023-01-09T08:13:29.091Z,92.9
2023-01-09T08:14:45.332Z,93.1
2023-01-09T08:16:01.580Z,92.9
2023-01-09T08:17:17.814Z,92.9
2023-01-09T08:18:34.054Z,92.5
2023-01-09T08:19:50.301Z,92.7
2023-01-09T08:21:06.535Z,92.7
2023-01-09T08:22:22.777Z,92.7
2023-01-09T08:23:39.019Z,92.6
2023-01-09T08:24:55.257Z,92.7
2023-01-09T08:26:10.496Z,93
2023-01-09T08:27:26.736Z,93
2023-01-09T08:28:42.981Z,92.9
2023-01-09T08:29:59.218Z,93.1
2023-01-09T08:31:15.455Z,92.9
2023-01-09T08:32:31.707Z,92.8
2023-01-09T08:33:47.941Z,92.3
2023-01-09T08:35:04.166Z,92.2
2023-01-09T08:36:20.420Z,91.9
2023-01-09T08:37:36.651Z,92.1
2023-01-09T08:38:52.896Z,92.2
2023-01-09T08:40:09.124Z,92
2023-01-09T08:41:25.376Z,91.9
2023-01-09T08:42:40.630Z,92.5
2023-01-09T08:43:56.861Z,91.7
2023-01-09T08:45:13.106Z,92.4
2023-01-09T08:46:29.335Z,92.1
2023-01-09T08:47:45.579Z,92.2
2023-01-09T08:49:01.823Z,92.3
2023-01-09T08:50:18.052Z,92.2
2023-01-09T08:51:34.290Z,92.1
2023-01-09T08:52:50.540Z,91.9
2023-01-09T08:54:06.770Z,92.2
2023-01-09T08:55:23.016Z,91.9
2023-01-09T08:56:39.248Z,91.8
2023-01-09T08:57:55.493Z,91.8
2023-01-09T08:59:10.736Z,91.6
2023-01-09T09:00:26.979Z,91.7
2023-01-09T09:01:43.222Z,91.7
2023-01-09T09:02:59.455Z,90.4
2023-01-09T09:04:15.709Z,89.3
2023-01-09T09:05:31.929Z,88.7
2023-01-09T09:06:48.187Z,88.9
2023-01-09T09:08:04.422Z,89.1
2023-01-09T09:10:36.887Z,90.1
2023-01-09T09:11:53.139Z,90.2
2023-01-09T09:13:09.376Z,90.2
2023-01-09T09:14:25.604Z,90.1
2023-01-09T09:15:40.861Z,90.5
2023-01-09T09:16:57.112Z,90.9
2023-01-09T09:18:13.346Z,91.3
2023-01-09T09:19:29.583Z,91.3
2023-01-09T09:20:45.818Z,91.4
2023-01-09T09:22:02.068Z,90.8
2023-01-09T09:23:18.301Z,91
2023-01-09T09:24:34.530Z,90.8
2023-01-09T09:25:50.783Z,91
2023-01-09T09:27:07.005Z,91
2023-01-09T09:28:23.249Z,91
2023-01-09T09:29:39.495Z,91
2023-01-09T09:30:55.722Z,90.7
2023-01-09T09:32:10.989Z,90.4
2023-01-09T09:33:27.222Z,90
2023-01-09T09:34:43.461Z,89.9
2023-01-09T09:35:59.706Z,89.8
2023-01-09T09:37:15.932Z,89.9
2023-01-09T09:38:32.181Z,90.3
2023-01-09T09:39:48.417Z,89.9
2023-01-09T09:41:04.654Z,90.2
2023-01-09T09:42:20.904Z,90.2
2023-01-09T09:43:37.132Z,90
2023-01-09T09:44:53.364Z,89.3
2023-01-09T09:46:09.605Z,88.6
2023-01-09T09:47:25.862Z,88.2
2023-01-09T09:48:41.115Z,88.3
2023-01-09T09:49:57.340Z,88.5
2023-01-09T09:51:13.595Z,88.7
2023-01-09T09:52:29.831Z,89.4
2023-01-09T09:53:46.058Z,89.8
2023-01-09T09:55:02.293Z,89.6
2023-01-09T09:56:18.540Z,89.3
2023-01-09T09:57:34.776Z,89.1
2023-01-09T09:58:51.026Z,89.1
2023-01-09T10:00:07.265Z,89
2023-01-09T10:01:23.486Z,88.3
2023-01-09T10:02:39.733Z,88.5
2023-01-09T10:03:55.969Z,88
2023-01-09T10:05:11.233Z,88.2
2023-01-09T10:06:27.475Z,88.2
2023-01-09T10:07:43.707Z,88.5
2023-01-09T10:08:59.944Z,87.6
2023-01-09T10:10:16.179Z,87.2
2023-01-09T10:11:32.431Z,87.2
2023-01-09T10:12:48.669Z,86
2023-01-09T10:14:04.893Z,86.1
2023-01-09T10:15:21.129Z,85.6
2023-01-09T10:16:37.387Z,85.5
2023-01-09T10:17:53.623Z,85.5
2023-01-09T10:19:09.861Z,85.2
2023-01-09T10:20:26.085Z,84.4
2023-01-09T10:21:41.344Z,83.5
2023-01-09T10:22:57.588Z,83.6
2023-01-09T10:24:13.832Z,83.6
2023-01-09T10:25:30.076Z,82.9
2023-01-09T10:26:46.306Z,82.4
2023-01-09T10:28:02.549Z,82
2023-01-09T10:29:18.788Z,80.6
2023-01-09T10:30:35.028Z,80.7
2023-01-09T10:31:51.251Z,81.2
2023-01-09T10:33:07.507Z,81.3
2023-01-09T10:34:23.735Z,80.5
2023-01-09T10:35:39.973Z,79.6
2023-01-09T10:36:56.216Z,79.3
2023-01-09T10:38:11.476Z,78.7
2023-01-09T10:39:27.701Z,78.2
2023-01-09T10:40:43.938Z,78.5
2023-01-09T10:42:00.174Z,77.5
2023-01-09T10:43:16.418Z,77.2
2023-01-09T10:44:32.662Z,77.4
2023-01-09T10:45:48.903Z,76.2
2023-01-09T10:47:05.148Z,75
2023-01-09T10:48:21.367Z,74.9
2023-01-09T10:49:37.623Z,75.2
2023-01-09T10:50:53.847Z,75.5
2023-01-09T10:52:10.099Z,74.8
2023-01-09T10:53:26.338Z,74
2023-01-09T10:54:41.577Z,74.7
2023-01-09T10:55:57.823Z,75.8
2023-01-09T10:57:14.073Z,74.8
2023-01-09T10:58:30.301Z,74.2
2023-01-09T10:59:46.535Z,73.6
2023-01-09T11:01:02.789Z,73
2023-01-09T11:02:19.016Z,73.3
2023-01-09T11:03:35.259Z,72.8
2023-01-09T11:04:51.502Z,73
2023-01-09T11:06:07.739Z,73.5
2023-01-09T11:07:23.980Z,72.7
2023-01-09T11:08:40.203Z,72.3
2023-01-09T11:11:12.688Z,71.5
2023-01-09T11:12:27.953Z,71.8
2023-01-09T11:13:44.187Z,72.8
2023-01-09T11:15:00.428Z,72.7
2023-01-09T11:16:16.651Z,72.6
2023-01-09T11:17:32.907Z,73.3
2023-01-09T11:18:48.160Z,75
2023-01-09T11:20:04.396Z,72.8
2023-01-09T11:21:20.638Z,72.5
2023-01-09T11:22:36.866Z,71.8
2023-01-09T11:23:53.118Z,72.4
2023-01-09T11:25:09.353Z,72.3
2023-01-09T11:26:25.582Z,72.5
2023-01-09T11:27:41.837Z,73.2
2023-01-09T11:28:58.066Z,72.8
2023-01-09T11:30:14.310Z,71.6
2023-01-09T11:31:30.537Z,73.2
2023-01-09T11:32:46.775Z,72.6
2023-01-09T11:34:03.019Z,72.3
2023-01-09T11:35:18.276Z,73.3
2023-01-09T11:36:34.523Z,73.5
2023-01-09T11:37:50.764Z,73.6
2023-01-09T11:39:06.984Z,73.2
2023-01-09T11:40:23.231Z,72.5
2023-01-09T11:41:39.462Z,74
2023-01-09T11:42:55.717Z,73.4
2023-01-09T11:44:11.940Z,73.2
2023-01-09T11:45:28.180Z,72.6
2023-01-09T11:46:44.418Z,73.1
2023-01-09T11:48:00.664Z,72.7
2023-01-09T11:49:16.914Z,72.8
2023-01-09T11:50:33.136Z,72.8
2023-01-09T11:51:48.395Z,72.7
2023-01-09T11:53:04.640Z,73.3
2023-01-09T11:54:20.884Z,72.8
2023-01-09T11:55:37.123Z,72
2023-01-09T11:56:53.351Z,72.2
2023-01-09T11:58:09.584Z,71.6
2023-01-09T11:59:25.831Z,71.4
2023-01-09T12:00:42.075Z,71.2
2023-01-09T12:01:58.318Z,72.3
2023-01-09T12:03:14.550Z,70.4
2023-01-09T12:04:30.776Z,69.9
2023-01-09T12:05:47.032Z,69.5
2023-01-09T12:07:03.268Z,70.3
2023-01-09T12:08:18.521Z,70.1
2023-01-09T12:09:34.755Z,70.8
2023-01-09T12:10:50.993Z,71.5
2023-01-09T12:12:07.230Z,72
2023-01-09T12:13:23.466Z,72.4
2023-01-09T12:14:39.702Z,73
2023-01-09T12:15:55.957Z,73.6
2023-01-09T12:17:12.189Z,73.9
2023-01-09T12:18:28.418Z,74.1
2023-01-09T12:19:44.670Z,73.8
2023-01-09T12:21:00.895Z,74.3
2023-01-09T12:22:17.136Z,74.5
2023-01-09T12:23:33.391Z,75.2
2023-01-09T12:24:48.636Z,74.8
2023-01-09T12:26:04.879Z,74.9
2023-01-09T12:27:21.111Z,74.3
2023-01-09T12:28:37.344Z,74.8
2023-01-09T12:29:53.581Z,74.7
2023-01-09T12:31:09.826Z,74
2023-01-09T12:32:26.075Z,71.8
2023-01-09T12:33:42.305Z,70.3
2023-01-09T12:34:58.548Z,71.5
2023-01-09T12:36:14.799Z,72.3
2023-01-09T12:37:31.036Z,73.3
2023-01-09T12:38:47.276Z,74.8
2023-01-09T12:40:03.511Z,75
2023-01-09T12:41:18.774Z,76.1
2023-01-09T12:42:35.007Z,76.8
2023-01-09T12:43:51.233Z,77
2023-01-09T12:45:07.476Z,77.5
2023-01-09T12:46:23.714Z,78
2023-01-09T12:47:39.966Z,79.3
2023-01-09T12:48:56.200Z,79.5
2023-01-09T12:50:12.429Z,79
2023-01-09T12:51:28.681Z,79.2
2023-01-09T12:52:44.919Z,79
2023-01-09T12:54:01.163Z,78.5
2023-01-09T12:55:17.384Z,78.9
2023-01-09T12:56:33.627Z,79.5
2023-01-09T12:57:48.878Z,79
2023-01-09T12:59:05.117Z,78.9
2023-01-09T13:00:21.370Z,78.9
2023-01-09T13:01:37.591Z,77.4
2023-01-09T13:02:53.833Z,77.3
2023-01-09T13:04:10.070Z,77.8
2023-01-09T13:05:26.339Z,77.7
2023-01-09T13:06:42.547Z,77.9
2023-01-09T13:07:58.786Z,77.8
2023-01-09T13:09:15.038Z,78.2
2023-01-09T13:11:47.511Z,78.7
2023-01-09T13:13:03.759Z,79
2023-01-09T13:14:19.007Z,78.6
2023-01-09T13:15:35.233Z,78.7
2023-01-09T13:16:51.486Z,78.8
2023-01-09T13:18:07.727Z,78.4
2023-01-09T13:19:23.957Z,78
2023-01-09T13:20:40.205Z,77.9
2023-01-09T13:21:56.432Z,77.5
2023-01-09T13:23:12.676Z,77.5
2023-01-09T13:24:28.904Z,77.2
2023-01-09T13:25:45.150Z,75.6
2023-01-09T13:27:01.393Z,75.7
2023-01-09T13:28:17.632Z,76.2
2023-01-09T13:29:33.878Z,75.7
2023-01-09T13:30:49.125Z,76
2023-01-09T13:32:05.371Z,76.2
2023-01-09T13:33:21.612Z,75.7
2023-01-09T13:34:37.833Z,76.2
2023-01-09T13:35:54.083Z,77.1
2023-01-09T13:37:10.319Z,77.3
2023-01-09T13:38:26.567Z,77.8
2023-01-09T13:39:42.801Z,78.2
2023-01-09T13:40:59.044Z,77.4
2023-01-09T13:42:15.277Z,76.8
2023-01-09T13:43:31.520Z,76.8
2023-01-09T13:44:47.749Z,77.5
2023-01-09T13:46:03.992Z,77.4
2023-01-09T13:47:19.249Z,78
2023-01-09T13:48:35.487Z,78.1
2023-01-09T13:49:51.715Z,77.7
2023-01-09T13:51:07.964Z,77.4
2023-01-09T13:52:24.202Z,77.6
2023-01-09T13:53:40.449Z,78.4
2023-01-09T13:54:56.687Z,78.3
2023-01-09T13:56:12.924Z,78.2
2023-01-09T13:57:29.144Z,77.6
2023-01-09T13:58:45.389Z,78.5
2023-01-09T14:00:01.634Z,78.3
2023-01-09T14:01:17.865Z,78.2
2023-01-09T14:02:34.101Z,78.4
2023-01-09T14:03:49.368Z,78.5
2023-01-09T14:05:05.603Z,78.4
2023-01-09T14:06:21.844Z,77.9
2023-01-09T14:07:38.080Z,77.6
2023-01-09T14:08:54.319Z,77.8
2023-01-09T14:10:10.549Z,77.7
2023-01-09T14:11:26.796Z,77.7
2023-01-09T14:12:43.032Z,77.3
2023-01-09T14:13:59.281Z,77
2023-01-09T14:15:15.519Z,77
2023-01-09T14:16:31.755Z,76.7
2023-01-09T14:17:47.991Z,77.2
2023-01-09T14:19:04.229Z,76.2
2023-01-09T14:20:19.473Z,76
2023-01-09T14:21:35.725Z,76.6
2023-01-09T14:22:51.953Z,76.4
2023-01-09T14:24:08.197Z,76.7
2023-01-09T14:25:24.434Z,76.8
2023-01-09T14:26:40.678Z,76.7
2023-01-09T14:27:56.906Z,76.9
2023-01-09T14:29:13.158Z,77.2
2023-01-09T14:30:29.383Z,77.3
2023-01-09T14:31:45.621Z,77.6
2023-01-09T14:33:01.876Z,78
2023-01-09T14:34:18.099Z,78.4
2023-01-09T14:35:34.337Z,78.3
2023-01-09T14:36:49.606Z,78.1
2023-01-09T14:38:05.833Z,78
2023-01-09T14:39:22.075Z,78
2023-01-09T14:40:38.314Z,78.2
2023-01-09T14:41:54.546Z,78.3
2023-01-09T14:43:10.799Z,78.4
2023-01-09T14:44:27.026Z,78.6
2023-01-09T14:45:43.282Z,79
2023-01-09T14:46:59.512Z,79.1
2023-01-09T14:48:15.750Z,79.5
2023-01-09T14:49:31.998Z,79.6
2023-01-09T14:50:48.239Z,79.7
2023-01-09T14:52:04.478Z,79.9
2023-01-09T14:53:19.722Z,79.9
2023-01-09T14:54:35.966Z,80
2023-01-09T14:55:52.211Z,80
2023-01-09T14:57:08.430Z,80.3
2023-01-09T14:58:24.688Z,80.5
2023-01-09T14:59:40.924Z,80.6
2023-01-09T15:00:57.161Z,80.6
2023-01-09T15:02:13.392Z,80.4
2023-01-09T15:03:29.642Z,80.4
2023-01-09T15:04:45.879Z,80.4
2023-01-09T15:06:02.103Z,80.5
2023-01-09T15:07:18.343Z,80.6
2023-01-09T15:08:34.585Z,80.8
2023-01-09T15:09:49.835Z,80.8
2023-01-09T15:11:06.080Z,80.9
2023-01-09T15:12:22.319Z,81
2023-01-09T15:13:38.554Z,81.3
2023-01-09T15:14:54.805Z,81.5
2023-01-09T15:16:11.046Z,81.7
2023-01-09T15:17:27.272Z,81.8
2023-01-09T15:18:43.507Z,81.9
2023-01-09T15:19:59.751Z,81.9
2023-01-09T15:21:15.999Z,82.1
2023-01-09T15:22:32.233Z,82.3
2023-01-09T15:23:48.477Z,82.6
2023-01-09T15:25:04.717Z,82.8
2023-01-09T15:26:19.966Z,82.9
2023-01-09T15:27:36.195Z,83.1
2023-01-09T15:28:52.435Z,83.2
2023-01-09T15:30:08.674Z,83.7
2023-01-09T15:31:24.924Z,84.1
2023-01-09T15:32:41.157Z,84.3
2023-01-09T15:33:56.417Z,84.5
2023-01-09T15:35:12.661Z,84.8
2023-01-09T15:36:28.903Z,85
2023-01-09T15:37:45.132Z,85.2
2023-01-09T15:39:01.371Z,85.5
2023-01-09T15:40:17.623Z,85.8
2023-01-09T15:41:33.863Z,86
2023-01-09T15:42:50.086Z,86.1
2023-01-09T15:44:06.337Z,86.3
2023-01-09T15:45:22.578Z,86.5
2023-01-09T15:46:38.815Z,86.6
2023-01-09T15:47:55.041Z,86.8
2023-01-09T15:49:11.288Z,86.8
2023-01-09T15:50:26.544Z,86.9
2023-01-09T15:51:42.775Z,87
2023-01-09T15:52:59.030Z,87.1
2023-01-09T15:54:15.257Z,87.3
2023-01-09T15:55:31.493Z,87.3
2023-01-09T15:56:47.747Z,87.4
2023-01-09T15:58:03.986Z,87.5
2023-01-09T15:59:20.271Z,87.5
2023-01-09T16:00:36.561Z,87.6
2023-01-09T16:01:52.859Z,87.7
2023-01-09T16:03:09.138Z,87.9
2023-01-09T16:04:25.451Z,88
2023-01-09T16:05:41.726Z,88
2023-01-09T16:06:57.055Z,88.1
2023-01-09T16:08:13.328Z,88.1
2023-01-09T16:09:29.622Z,88.1
2023-01-09T16:10:45.918Z,88.2
2023-01-09T16:12:02.217Z,88.2
2023-01-09T16:13:18.499Z,88.2
2023-01-09T16:14:34.811Z,88.2
2023-01-09T16:15:51.095Z,88.1
2023-01-09T16:17:07.380Z,87.9
2023-01-09T16:18:23.682Z,87.7
2023-01-09T16:19:39.974Z,87.6
2023-01-09T16:20:56.262Z,87.4
2023-01-09T16:22:12.559Z,87.3
2023-01-09T16:23:27.877Z,87.2
2023-01-09T16:24:44.160Z,87.2
2023-01-09T16:26:00.447Z,87.2
2023-01-09T16:27:16.747Z,87.3
2023-01-09T16:28:33.044Z,87.1
2023-01-09T16:29:49.328Z,87.2
2023-01-09T16:31:05.625Z,87.2
2023-01-09T16:32:21.921Z,87.3
2023-01-09T16:33:38.219Z,87.4
2023-01-09T16:34:54.503Z,87.5
2023-01-09T16:36:10.789Z,87.6
2023-01-09T16:37:27.086Z,87.5
2023-01-09T16:38:43.373Z,87.4
2023-01-09T16:39:58.699Z,87.6
2023-01-09T16:41:14.988Z,87.5
2023-01-09T16:42:31.284Z,87.5
2023-01-09T16:43:47.575Z,87.6
2023-01-09T16:45:03.866Z,87.6
2023-01-09T16:46:20.159Z,87.6
2023-01-09T16:47:36.445Z,87.8
2023-01-09T16:48:52.742Z,87.8
2023-01-09T16:50:09.027Z,87.6
2023-01-09T16:51:25.339Z,87.8
2023-01-09T16:52:41.616Z,87.8
2023-01-09T16:53:57.917Z,87.8
2023-01-09T16:55:14.200Z,87.8
2023-01-09T16:56:29.513Z,87.8
2023-01-09T16:57:45.811Z,88
2023-01-09T16:59:02.054Z,87.8
2023-01-09T17:00:18.343Z,87.8
2023-01-09T17:01:34.632Z,87.8
2023-01-09T17:02:50.933Z,87.8
2023-01-09T17:04:07.220Z,87.8
2023-01-09T17:05:23.509Z,87.8
2023-01-09T17:06:39.808Z,88
2023-01-09T17:07:56.107Z,88
2023-01-09T17:09:12.395Z,88.1
2023-01-09T17:10:28.678Z,88
2023-01-09T17:11:44.977Z,88
2023-01-09T17:13:00.276Z,88.1
2023-01-09T17:14:16.577Z,88